sensor_id;sensor_type;location;lat;lon;timestamp;P1;durP1;ratioP1;P2;durP2;ratioP2
12631;SDS011;6381;45.748;12.106;2022-08-19T00:02:05;6.78;;;3.53;;
12631;SDS011;6381;45.748;12.106;2022-08-19T00:04:34;7.38;;;3.10;;
12631;SDS011;6381;45.748;12.106;2022-08-19T00:07:04;4.18;;;2.60;;
12631;SDS011;6381;45.748;12.106;2022-08-19T00:09:33;7.47;;;2.90;;
12631;SDS011;6381;45.748;12.106;2022-08-19T00:12:03;9.60;;;2.95;;
12631;SDS011;6381;45.748;12.106;2022-08-19T00:14:32;4.65;;;2.80;;
12631;SDS011;6381;45.748;12.106;2022-08-19T00:17:01;7.30;;;2.80;;
12631;SDS011;6381;45.748;12.106;2022-08-19T00:19:32;9.00;;;2.80;;
12631;SDS011;6381;45.748;12.106;2022-08-19T00:22:04;6.07;;;2.88;;
12631;SDS011;6381;45.748;12.106;2022-08-19T00:24:35;6.95;;;2.90;;
12631;SDS011;6381;45.748;12.106;2022-08-19T00:27:04;6.82;;;2.80;;
12631;SDS011;6381;45.748;12.106;2022-08-19T00:29:52;4.93;;;2.80;;
12631;SDS011;6381;45.748;12.106;2022-08-19T00:32:21;5.82;;;3.00;;
12631;SDS011;6381;45.748;12.106;2022-08-19T00:34:56;5.10;;;3.10;;
12631;SDS011;6381;45.748;12.106;2022-08-19T00:37:25;6.45;;;2.90;;
12631;SDS011;6381;45.748;12.106;2022-08-19T00:39:55;6.55;;;2.83;;
12631;SDS011;6381;45.748;12.106;2022-08-19T00:42:23;8.27;;;3.65;;
12631;SDS011;6381;45.748;12.106;2022-08-19T00:44:55;7.22;;;3.00;;
12631;SDS011;6381;45.748;12.106;2022-08-19T00:47:23;9.50;;;3.80;;
12631;SDS011;6381;45.748;12.106;2022-08-19T00:49:55;6.20;;;2.88;;
12631;SDS011;6381;45.748;12.106;2022-08-19T00:52:27;6.15;;;3.22;;
12631;SDS011;6381;45.748;12.106;2022-08-19T00:55:00;11.85;;;4.20;;
12631;SDS011;6381;45.748;12.106;2022-08-19T00:57:32;8.35;;;3.78;;
12631;SDS011;6381;45.748;12.106;2022-08-19T01:00:05;9.05;;;3.50;;
12631;SDS011;6381;45.748;12.106;2022-08-19T01:02:36;5.95;;;3.33;;
12631;SDS011;6381;45.748;12.106;2022-08-19T01:05:08;5.38;;;3.40;;
12631;SDS011;6381;45.748;12.106;2022-08-19T01:07:38;8.75;;;3.80;;
12631;SDS011;6381;45.748;12.106;2022-08-19T01:10:09;9.57;;;4.03;;
12631;SDS011;6381;45.748;12.106;2022-08-19T01:12:40;8.00;;;3.85;;
12631;SDS011;6381;45.748;12.106;2022-08-19T01:15:10;8.70;;;3.67;;
12631;SDS011;6381;45.748;12.106;2022-08-19T01:17:40;9.25;;;4.30;;
12631;SDS011;6381;45.748;12.106;2022-08-19T01:20:12;9.15;;;3.58;;
12631;SDS011;6381;45.748;12.106;2022-08-19T01:22:45;8.43;;;4.20;;
12631;SDS011;6381;45.748;12.106;2022-08-19T01:25:16;7.63;;;3.90;;
12631;SDS011;6381;45.748;12.106;2022-08-19T01:27:52;8.30;;;4.05;;
12631;SDS011;6381;45.748;12.106;2022-08-19T01:30:28;7.38;;;3.65;;
12631;SDS011;6381;45.748;12.106;2022-08-19T01:32:59;8.85;;;3.72;;
12631;SDS011;6381;45.748;12.106;2022-08-19T01:35:32;4.32;;;2.78;;
12631;SDS011;6381;45.748;12.106;2022-08-19T01:38:05;7.95;;;3.25;;
12631;SDS011;6381;45.748;12.106;2022-08-19T01:40:38;7.40;;;3.28;;
12631;SDS011;6381;45.748;12.106;2022-08-19T01:43:08;5.90;;;2.80;;
12631;SDS011;6381;45.748;12.106;2022-08-19T01:45:37;9.18;;;3.30;;
12631;SDS011;6381;45.748;12.106;2022-08-19T01:48:07;5.40;;;3.00;;
12631;SDS011;6381;45.748;12.106;2022-08-19T01:50:36;7.32;;;3.42;;
12631;SDS011;6381;45.748;12.106;2022-08-19T01:53:08;8.68;;;3.38;;
12631;SDS011;6381;45.748;12.106;2022-08-19T01:55:40;7.18;;;3.35;;
12631;SDS011;6381;45.748;12.106;2022-08-19T01:58:12;6.32;;;3.00;;
12631;SDS011;6381;45.748;12.106;2022-08-19T02:00:46;6.00;;;2.42;;
12631;SDS011;6381;45.748;12.106;2022-08-19T02:03:16;7.03;;;3.05;;
12631;SDS011;6381;45.748;12.106;2022-08-19T02:05:45;6.80;;;3.35;;
12631;SDS011;6381;45.748;12.106;2022-08-19T02:08:15;6.07;;;3.38;;
12631;SDS011;6381;45.748;12.106;2022-08-19T02:10:44;5.95;;;2.90;;
12631;SDS011;6381;45.748;12.106;2022-08-19T02:13:13;8.00;;;3.10;;
12631;SDS011;6381;45.748;12.106;2022-08-19T02:15:49;6.68;;;2.97;;
12631;SDS011;6381;45.748;12.106;2022-08-19T02:18:18;4.85;;;2.67;;
12631;SDS011;6381;45.748;12.106;2022-08-19T02:20:53;5.07;;;2.55;;
12631;SDS011;6381;45.748;12.106;2022-08-19T02:23:23;9.80;;;3.25;;
12631;SDS011;6381;45.748;12.106;2022-08-19T02:25:53;5.75;;;3.22;;
12631;SDS011;6381;45.748;12.106;2022-08-19T02:28:22;7.07;;;3.60;;
12631;SDS011;6381;45.748;12.106;2022-08-19T02:30:51;7.57;;;4.22;;
12631;SDS011;6381;45.748;12.106;2022-08-19T02:33:20;10.07;;;4.57;;
12631;SDS011;6381;45.748;12.106;2022-08-19T02:35:49;7.68;;;4.50;;
12631;SDS011;6381;45.748;12.106;2022-08-19T02:38:18;8.20;;;4.80;;
12631;SDS011;6381;45.748;12.106;2022-08-19T02:40:54;10.27;;;4.70;;
12631;SDS011;6381;45.748;12.106;2022-08-19T02:43:24;8.75;;;4.68;;
12631;SDS011;6381;45.748;12.106;2022-08-19T02:45:57;9.93;;;5.38;;
12631;SDS011;6381;45.748;12.106;2022-08-19T02:48:26;11.38;;;5.57;;
12631;SDS011;6381;45.748;12.106;2022-08-19T02:50:56;8.32;;;5.13;;
12631;SDS011;6381;45.748;12.106;2022-08-19T02:53:26;9.27;;;5.60;;
12631;SDS011;6381;45.748;12.106;2022-08-19T02:55:58;9.50;;;4.60;;
12631;SDS011;6381;45.748;12.106;2022-08-19T02:58:26;7.90;;;4.10;;
12631;SDS011;6381;45.748;12.106;2022-08-19T03:00:56;9.27;;;4.03;;
12631;SDS011;6381;45.748;12.106;2022-08-19T03:03:25;9.20;;;3.88;;
12631;SDS011;6381;45.748;12.106;2022-08-19T03:06:07;5.68;;;3.35;;
12631;SDS011;6381;45.748;12.106;2022-08-19T03:08:39;9.10;;;3.67;;
12631;SDS011;6381;45.748;12.106;2022-08-19T03:11:14;5.70;;;3.25;;
12631;SDS011;6381;45.748;12.106;2022-08-19T03:13:43;7.30;;;3.50;;
12631;SDS011;6381;45.748;12.106;2022-08-19T03:16:12;7.47;;;3.42;;
12631;SDS011;6381;45.748;12.106;2022-08-19T03:18:41;6.78;;;3.28;;
12631;SDS011;6381;45.748;12.106;2022-08-19T03:21:14;6.13;;;2.88;;
12631;SDS011;6381;45.748;12.106;2022-08-19T03:23:44;7.85;;;2.65;;
12631;SDS011;6381;45.748;12.106;2022-08-19T03:26:15;7.57;;;3.03;;
12631;SDS011;6381;45.748;12.106;2022-08-19T03:28:44;6.15;;;3.05;;
12631;SDS011;6381;45.748;12.106;2022-08-19T03:31:24;3.88;;;2.70;;
12631;SDS011;6381;45.748;12.106;2022-08-19T03:34:15;5.13;;;2.67;;
12631;SDS011;6381;45.748;12.106;2022-08-19T03:36:47;5.80;;;2.58;;
12631;SDS011;6381;45.748;12.106;2022-08-19T03:39:16;6.10;;;2.65;;
12631;SDS011;6381;45.748;12.106;2022-08-19T03:41:48;5.47;;;2.40;;
12631;SDS011;6381;45.748;12.106;2022-08-19T03:44:38;4.30;;;2.30;;
12631;SDS011;6381;45.748;12.106;2022-08-19T03:47:08;4.15;;;2.70;;
12631;SDS011;6381;45.748;12.106;2022-08-19T03:49:44;4.28;;;2.65;;
12631;SDS011;6381;45.748;12.106;2022-08-19T03:52:13;4.70;;;2.55;;
12631;SDS011;6381;45.748;12.106;2022-08-19T03:54:42;4.00;;;2.30;;
12631;SDS011;6381;45.748;12.106;2022-08-19T03:57:13;4.68;;;2.33;;
12631;SDS011;6381;45.748;12.106;2022-08-19T03:59:42;4.65;;;2.35;;
12631;SDS011;6381;45.748;12.106;2022-08-19T04:02:11;4.85;;;2.60;;
12631;SDS011;6381;45.748;12.106;2022-08-19T04:04:42;7.43;;;2.20;;
12631;SDS011;6381;45.748;12.106;2022-08-19T04:07:13;7.22;;;2.60;;
12631;SDS011;6381;45.748;12.106;2022-08-19T04:09:43;6.32;;;2.72;;
12631;SDS011;6381;45.748;12.106;2022-08-19T04:12:13;7.15;;;2.92;;
12631;SDS011;6381;45.748;12.106;2022-08-19T04:14:42;5.90;;;2.67;;
12631;SDS011;6381;45.748;12.106;2022-08-19T04:17:11;6.88;;;2.70;;
12631;SDS011;6381;45.748;12.106;2022-08-19T04:19:40;4.03;;;2.30;;
12631;SDS011;6381;45.748;12.106;2022-08-19T04:22:11;3.83;;;2.30;;
12631;SDS011;6381;45.748;12.106;2022-08-19T04:24:39;4.40;;;2.50;;
12631;SDS011;6381;45.748;12.106;2022-08-19T04:27:08;4.90;;;2.20;;
12631;SDS011;6381;45.748;12.106;2022-08-19T04:29:39;5.55;;;2.72;;
12631;SDS011;6381;45.748;12.106;2022-08-19T04:32:10;8.52;;;2.50;;
12631;SDS011;6381;45.748;12.106;2022-08-19T04:34:41;5.53;;;2.55;;
12631;SDS011;6381;45.748;12.106;2022-08-19T04:37:31;6.63;;;2.72;;
12631;SDS011;6381;45.748;12.106;2022-08-19T04:40:04;6.72;;;2.90;;
12631;SDS011;6381;45.748;12.106;2022-08-19T04:42:51;3.85;;;2.20;;
12631;SDS011;6381;45.748;12.106;2022-08-19T04:45:22;4.22;;;2.30;;
12631;SDS011;6381;45.748;12.106;2022-08-19T04:47:53;4.05;;;2.58;;
12631;SDS011;6381;45.748;12.106;2022-08-19T04:50:44;5.65;;;2.30;;
12631;SDS011;6381;45.748;12.106;2022-08-19T04:53:12;5.13;;;2.20;;
12631;SDS011;6381;45.748;12.106;2022-08-19T04:55:41;4.35;;;2.33;;
12631;SDS011;6381;45.748;12.106;2022-08-19T04:58:10;5.65;;;2.67;;
12631;SDS011;6381;45.748;12.106;2022-08-19T05:00:44;5.57;;;2.40;;
12631;SDS011;6381;45.748;12.106;2022-08-19T05:03:12;8.95;;;2.50;;
12631;SDS011;6381;45.748;12.106;2022-08-19T05:05:43;7.18;;;2.45;;
12631;SDS011;6381;45.748;12.106;2022-08-19T05:08:17;6.15;;;2.67;;
12631;SDS011;6381;45.748;12.106;2022-08-19T05:10:57;5.82;;;2.40;;
12631;SDS011;6381;45.748;12.106;2022-08-19T05:13:26;5.30;;;2.38;;
12631;SDS011;6381;45.748;12.106;2022-08-19T05:15:57;3.75;;;2.30;;
12631;SDS011;6381;45.748;12.106;2022-08-19T05:18:26;5.63;;;2.25;;
12631;SDS011;6381;45.748;12.106;2022-08-19T05:21:13;5.80;;;2.78;;
12631;SDS011;6381;45.748;12.106;2022-08-19T05:24:02;6.28;;;2.63;;
12631;SDS011;6381;45.748;12.106;2022-08-19T05:26:35;4.38;;;2.38;;
12631;SDS011;6381;45.748;12.106;2022-08-19T05:29:04;5.00;;;2.10;;
12631;SDS011;6381;45.748;12.106;2022-08-19T05:31:37;6.35;;;2.63;;
12631;SDS011;6381;45.748;12.106;2022-08-19T05:34:07;4.28;;;2.30;;
12631;SDS011;6381;45.748;12.106;2022-08-19T05:36:46;5.28;;;2.40;;
12631;SDS011;6381;45.748;12.106;2022-08-19T05:39:16;5.70;;;2.60;;
12631;SDS011;6381;45.748;12.106;2022-08-19T05:41:48;5.10;;;2.50;;
12631;SDS011;6381;45.748;12.106;2022-08-19T05:44:19;4.13;;;2.50;;
12631;SDS011;6381;45.748;12.106;2022-08-19T05:46:50;5.18;;;2.67;;
12631;SDS011;6381;45.748;12.106;2022-08-19T05:49:21;5.40;;;2.20;;
12631;SDS011;6381;45.748;12.106;2022-08-19T05:51:52;4.95;;;2.20;;
12631;SDS011;6381;45.748;12.106;2022-08-19T05:54:22;5.65;;;2.67;;
12631;SDS011;6381;45.748;12.106;2022-08-19T05:56:51;5.80;;;2.70;;
12631;SDS011;6381;45.748;12.106;2022-08-19T05:59:21;6.57;;;2.45;;
12631;SDS011;6381;45.748;12.106;2022-08-19T06:01:52;3.50;;;2.50;;
12631;SDS011;6381;45.748;12.106;2022-08-19T06:04:22;4.57;;;2.60;;
12631;SDS011;6381;45.748;12.106;2022-08-19T06:06:53;6.72;;;2.90;;
12631;SDS011;6381;45.748;12.106;2022-08-19T06:09:22;5.32;;;2.80;;
12631;SDS011;6381;45.748;12.106;2022-08-19T06:11:52;5.40;;;2.45;;
12631;SDS011;6381;45.748;12.106;2022-08-19T06:14:27;8.10;;;3.08;;
12631;SDS011;6381;45.748;12.106;2022-08-19T06:17:00;5.07;;;2.20;;
12631;SDS011;6381;45.748;12.106;2022-08-19T06:19:33;2.53;;;1.92;;
12631;SDS011;6381;45.748;12.106;2022-08-19T06:22:06;3.53;;;2.33;;
12631;SDS011;6381;45.748;12.106;2022-08-19T06:24:39;3.88;;;2.20;;
12631;SDS011;6381;45.748;12.106;2022-08-19T06:27:08;3.22;;;2.00;;
12631;SDS011;6381;45.748;12.106;2022-08-19T06:29:37;4.80;;;2.03;;
12631;SDS011;6381;45.748;12.106;2022-08-19T06:32:07;4.60;;;2.10;;
12631;SDS011;6381;45.748;12.106;2022-08-19T06:34:37;2.88;;;1.83;;
12631;SDS011;6381;45.748;12.106;2022-08-19T06:37:07;6.18;;;2.10;;
12631;SDS011;6381;45.748;12.106;2022-08-19T06:39:39;5.25;;;2.10;;
12631;SDS011;6381;45.748;12.106;2022-08-19T06:42:10;5.60;;;2.17;;
12631;SDS011;6381;45.748;12.106;2022-08-19T06:44:44;5.85;;;2.00;;
12631;SDS011;6381;45.748;12.106;2022-08-19T06:47:20;4.72;;;1.90;;
12631;SDS011;6381;45.748;12.106;2022-08-19T06:49:54;3.55;;;2.03;;
12631;SDS011;6381;45.748;12.106;2022-08-19T06:52:28;4.68;;;2.13;;
12631;SDS011;6381;45.748;12.106;2022-08-19T06:54:59;6.43;;;2.20;;
12631;SDS011;6381;45.748;12.106;2022-08-19T06:57:32;4.22;;;2.05;;
12631;SDS011;6381;45.748;12.106;2022-08-19T07:00:02;3.72;;;1.88;;
12631;SDS011;6381;45.748;12.106;2022-08-19T07:02:40;4.35;;;1.80;;
12631;SDS011;6381;45.748;12.106;2022-08-19T07:05:21;4.20;;;1.70;;
12631;SDS011;6381;45.748;12.106;2022-08-19T07:07:50;3.78;;;1.90;;
12631;SDS011;6381;45.748;12.106;2022-08-19T07:10:23;3.72;;;1.85;;
12631;SDS011;6381;45.748;12.106;2022-08-19T07:12:51;3.72;;;1.60;;
12631;SDS011;6381;45.748;12.106;2022-08-19T07:15:21;4.30;;;1.90;;
12631;SDS011;6381;45.748;12.106;2022-08-19T07:17:51;3.00;;;1.92;;
12631;SDS011;6381;45.748;12.106;2022-08-19T07:20:21;5.13;;;1.90;;
12631;SDS011;6381;45.748;12.106;2022-08-19T07:22:54;3.42;;;1.88;;
12631;SDS011;6381;45.748;12.106;2022-08-19T07:25:23;4.85;;;2.00;;
12631;SDS011;6381;45.748;12.106;2022-08-19T07:27:58;5.80;;;2.15;;
12631;SDS011;6381;45.748;12.106;2022-08-19T07:30:28;5.47;;;2.20;;
12631;SDS011;6381;45.748;12.106;2022-08-19T07:32:58;4.50;;;2.15;;
12631;SDS011;6381;45.748;12.106;2022-08-19T07:35:29;4.68;;;2.28;;
12631;SDS011;6381;45.748;12.106;2022-08-19T07:37:59;3.72;;;2.10;;
12631;SDS011;6381;45.748;12.106;2022-08-19T07:40:30;4.97;;;2.00;;
12631;SDS011;6381;45.748;12.106;2022-08-19T07:42:59;6.20;;;2.38;;
12631;SDS011;6381;45.748;12.106;2022-08-19T07:45:28;8.43;;;2.17;;
12631;SDS011;6381;45.748;12.106;2022-08-19T07:47:58;5.25;;;2.65;;
12631;SDS011;6381;45.748;12.106;2022-08-19T07:50:27;4.95;;;2.25;;
12631;SDS011;6381;45.748;12.106;2022-08-19T07:52:56;3.22;;;2.03;;
12631;SDS011;6381;45.748;12.106;2022-08-19T07:55:26;4.28;;;2.15;;
12631;SDS011;6381;45.748;12.106;2022-08-19T07:58:08;3.33;;;2.13;;
12631;SDS011;6381;45.748;12.106;2022-08-19T08:00:38;5.18;;;2.25;;
12631;SDS011;6381;45.748;12.106;2022-08-19T08:03:09;4.85;;;2.78;;
12631;SDS011;6381;45.748;12.106;2022-08-19T08:05:40;3.67;;;2.00;;
12631;SDS011;6381;45.748;12.106;2022-08-19T08:08:22;4.88;;;2.30;;
12631;SDS011;6381;45.748;12.106;2022-08-19T08:11:14;7.07;;;2.38;;
12631;SDS011;6381;45.748;12.106;2022-08-19T08:13:45;4.72;;;2.08;;
12631;SDS011;6381;45.748;12.106;2022-08-19T08:16:30;4.35;;;1.95;;
12631;SDS011;6381;45.748;12.106;2022-08-19T08:19:14;9.50;;;2.72;;
12631;SDS011;6381;45.748;12.106;2022-08-19T08:21:53;5.45;;;2.40;;
12631;SDS011;6381;45.748;12.106;2022-08-19T08:24:23;6.97;;;3.05;;
12631;SDS011;6381;45.748;12.106;2022-08-19T08:26:54;6.68;;;2.80;;
12631;SDS011;6381;45.748;12.106;2022-08-19T08:29:25;5.38;;;2.80;;
12631;SDS011;6381;45.748;12.106;2022-08-19T08:32:00;5.85;;;2.78;;
12631;SDS011;6381;45.748;12.106;2022-08-19T08:34:42;4.18;;;2.65;;
12631;SDS011;6381;45.748;12.106;2022-08-19T08:37:17;7.65;;;3.08;;
12631;SDS011;6381;45.748;12.106;2022-08-19T08:39:46;4.63;;;2.92;;
12631;SDS011;6381;45.748;12.106;2022-08-19T08:42:17;5.22;;;2.90;;
12631;SDS011;6381;45.748;12.106;2022-08-19T08:44:52;9.02;;;2.80;;
12631;SDS011;6381;45.748;12.106;2022-08-19T08:47:27;8.50;;;2.90;;
12631;SDS011;6381;45.748;12.106;2022-08-19T08:50:04;5.80;;;2.65;;
12631;SDS011;6381;45.748;12.106;2022-08-19T08:52:37;9.40;;;2.72;;
12631;SDS011;6381;45.748;12.106;2022-08-19T08:55:12;5.97;;;2.55;;
12631;SDS011;6381;45.748;12.106;2022-08-19T08:57:49;4.55;;;2.45;;
12631;SDS011;6381;45.748;12.106;2022-08-19T09:00:23;4.60;;;2.35;;
12631;SDS011;6381;45.748;12.106;2022-08-19T09:02:54;4.90;;;2.92;;
12631;SDS011;6381;45.748;12.106;2022-08-19T09:05:27;6.43;;;2.72;;
12631;SDS011;6381;45.748;12.106;2022-08-19T09:08:15;6.72;;;2.80;;
12631;SDS011;6381;45.748;12.106;2022-08-19T09:10:51;7.97;;;3.13;;
12631;SDS011;6381;45.748;12.106;2022-08-19T09:13:23;8.32;;;3.45;;
12631;SDS011;6381;45.748;12.106;2022-08-19T09:16:05;8.43;;;3.40;;
12631;SDS011;6381;45.748;12.106;2022-08-19T09:18:38;6.18;;;3.47;;
12631;SDS011;6381;45.748;12.106;2022-08-19T09:21:11;8.82;;;3.75;;
12631;SDS011;6381;45.748;12.106;2022-08-19T09:23:39;7.90;;;3.30;;
12631;SDS011;6381;45.748;12.106;2022-08-19T09:26:10;8.73;;;3.65;;
12631;SDS011;6381;45.748;12.106;2022-08-19T09:28:42;6.60;;;3.97;;
12631;SDS011;6381;45.748;12.106;2022-08-19T09:31:15;5.35;;;3.63;;
12631;SDS011;6381;45.748;12.106;2022-08-19T09:33:46;9.30;;;4.18;;
12631;SDS011;6381;45.748;12.106;2022-08-19T09:36:20;7.00;;;3.85;;
12631;SDS011;6381;45.748;12.106;2022-08-19T09:39:00;5.50;;;3.20;;
12631;SDS011;6381;45.748;12.106;2022-08-19T09:41:42;6.25;;;3.30;;
12631;SDS011;6381;45.748;12.106;2022-08-19T09:44:14;10.90;;;3.63;;
12631;SDS011;6381;45.748;12.106;2022-08-19T09:46:44;6.28;;;3.30;;
12631;SDS011;6381;45.748;12.106;2022-08-19T09:49:14;8.82;;;3.50;;
12631;SDS011;6381;45.748;12.106;2022-08-19T09:51:46;5.00;;;3.08;;
12631;SDS011;6381;45.748;12.106;2022-08-19T09:54:18;8.00;;;3.60;;
12631;SDS011;6381;45.748;12.106;2022-08-19T09:56:50;6.30;;;3.15;;
12631;SDS011;6381;45.748;12.106;2022-08-19T09:59:19;6.03;;;2.70;;
12631;SDS011;6381;45.748;12.106;2022-08-19T10:01:49;6.75;;;3.00;;
12631;SDS011;6381;45.748;12.106;2022-08-19T10:04:19;6.88;;;2.70;;
12631;SDS011;6381;45.748;12.106;2022-08-19T10:06:55;4.95;;;2.88;;
12631;SDS011;6381;45.748;12.106;2022-08-19T10:09:25;6.57;;;3.28;;
12631;SDS011;6381;45.748;12.106;2022-08-19T10:12:00;7.45;;;3.47;;
12631;SDS011;6381;45.748;12.106;2022-08-19T10:14:32;4.57;;;2.80;;
12631;SDS011;6381;45.748;12.106;2022-08-19T10:17:01;8.50;;;3.67;;
12631;SDS011;6381;45.748;12.106;2022-08-19T10:19:47;5.75;;;2.90;;
12631;SDS011;6381;45.748;12.106;2022-08-19T10:22:22;5.43;;;3.00;;
12631;SDS011;6381;45.748;12.106;2022-08-19T10:24:51;4.43;;;2.78;;
12631;SDS011;6381;45.748;12.106;2022-08-19T10:27:21;5.38;;;2.70;;
12631;SDS011;6381;45.748;12.106;2022-08-19T10:29:52;4.95;;;2.63;;
12631;SDS011;6381;45.748;12.106;2022-08-19T10:32:24;7.75;;;2.88;;
12631;SDS011;6381;45.748;12.106;2022-08-19T10:34:59;4.82;;;2.80;;
12631;SDS011;6381;45.748;12.106;2022-08-19T10:37:33;3.58;;;2.22;;
12631;SDS011;6381;45.748;12.106;2022-08-19T10:40:21;4.45;;;2.33;;
12631;SDS011;6381;45.748;12.106;2022-08-19T10:42:50;7.88;;;2.38;;
12631;SDS011;6381;45.748;12.106;2022-08-19T10:45:19;7.18;;;2.50;;
12631;SDS011;6381;45.748;12.106;2022-08-19T10:47:49;3.60;;;2.50;;
12631;SDS011;6381;45.748;12.106;2022-08-19T10:50:18;5.07;;;2.28;;
12631;SDS011;6381;45.748;12.106;2022-08-19T10:53:06;4.07;;;2.10;;
12631;SDS011;6381;45.748;12.106;2022-08-19T10:55:36;3.60;;;2.10;;
12631;SDS011;6381;45.748;12.106;2022-08-19T10:58:22;5.00;;;2.50;;
12631;SDS011;6381;45.748;12.106;2022-08-19T11:00:52;6.05;;;2.38;;
12631;SDS011;6381;45.748;12.106;2022-08-19T11:03:22;4.47;;;2.30;;
12631;SDS011;6381;45.748;12.106;2022-08-19T11:05:57;8.65;;;2.53;;
12631;SDS011;6381;45.748;12.106;2022-08-19T11:08:29;6.03;;;2.60;;
12631;SDS011;6381;45.748;12.106;2022-08-19T11:10:58;4.47;;;2.50;;
12631;SDS011;6381;45.748;12.106;2022-08-19T11:13:29;5.05;;;2.80;;
12631;SDS011;6381;45.748;12.106;2022-08-19T11:16:03;7.13;;;2.42;;
12631;SDS011;6381;45.748;12.106;2022-08-19T11:18:35;6.13;;;2.42;;
12631;SDS011;6381;45.748;12.106;2022-08-19T11:21:06;5.55;;;2.42;;
12631;SDS011;6381;45.748;12.106;2022-08-19T11:23:38;4.00;;;2.42;;
12631;SDS011;6381;45.748;12.106;2022-08-19T11:26:07;7.15;;;2.60;;
12631;SDS011;6381;45.748;12.106;2022-08-19T11:28:36;7.80;;;2.60;;
12631;SDS011;6381;45.748;12.106;2022-08-19T11:31:09;5.95;;;2.47;;
12631;SDS011;6381;45.748;12.106;2022-08-19T11:33:39;7.15;;;2.85;;
12631;SDS011;6381;45.748;12.106;2022-08-19T11:36:13;3.45;;;2.67;;
12631;SDS011;6381;45.748;12.106;2022-08-19T11:38:44;5.25;;;2.60;;
12631;SDS011;6381;45.748;12.106;2022-08-19T11:41:15;6.72;;;2.53;;
12631;SDS011;6381;45.748;12.106;2022-08-19T11:43:45;4.88;;;2.80;;
12631;SDS011;6381;45.748;12.106;2022-08-19T11:46:15;6.75;;;2.72;;
12631;SDS011;6381;45.748;12.106;2022-08-19T11:48:45;6.80;;;2.97;;
12631;SDS011;6381;45.748;12.106;2022-08-19T11:51:16;5.90;;;2.78;;
12631;SDS011;6381;45.748;12.106;2022-08-19T11:53:49;5.88;;;2.90;;
12631;SDS011;6381;45.748;12.106;2022-08-19T11:56:21;5.53;;;3.08;;
12631;SDS011;6381;45.748;12.106;2022-08-19T11:58:50;4.72;;;2.97;;
12631;SDS011;6381;45.748;12.106;2022-08-19T12:01:21;4.70;;;2.67;;
12631;SDS011;6381;45.748;12.106;2022-08-19T12:03:52;4.18;;;2.40;;
12631;SDS011;6381;45.748;12.106;2022-08-19T12:06:23;4.43;;;2.13;;
12631;SDS011;6381;45.748;12.106;2022-08-19T12:08:55;3.83;;;2.05;;
12631;SDS011;6381;45.748;12.106;2022-08-19T12:11:26;4.47;;;2.75;;
12631;SDS011;6381;45.748;12.106;2022-08-19T12:14:00;5.32;;;2.10;;
12631;SDS011;6381;45.748;12.106;2022-08-19T12:16:29;3.28;;;2.05;;
12631;SDS011;6381;45.748;12.106;2022-08-19T12:19:00;5.65;;;2.47;;
12631;SDS011;6381;45.748;12.106;2022-08-19T12:21:34;3.63;;;2.10;;
12631;SDS011;6381;45.748;12.106;2022-08-19T12:24:05;4.00;;;1.90;;
12631;SDS011;6381;45.748;12.106;2022-08-19T12:26:35;6.35;;;2.00;;
12631;SDS011;6381;45.748;12.106;2022-08-19T12:29:19;4.40;;;2.58;;
12631;SDS011;6381;45.748;12.106;2022-08-19T12:31:50;3.85;;;2.50;;
12631;SDS011;6381;45.748;12.106;2022-08-19T12:34:20;4.57;;;2.67;;
12631;SDS011;6381;45.748;12.106;2022-08-19T12:36:49;4.07;;;2.30;;
12631;SDS011;6381;45.748;12.106;2022-08-19T12:39:19;4.55;;;2.33;;
12631;SDS011;6381;45.748;12.106;2022-08-19T12:41:48;4.07;;;2.30;;
12631;SDS011;6381;45.748;12.106;2022-08-19T12:44:20;4.03;;;2.10;;
12631;SDS011;6381;45.748;12.106;2022-08-19T12:46:57;5.78;;;1.98;;
12631;SDS011;6381;45.748;12.106;2022-08-19T12:49:29;5.90;;;2.42;;
12631;SDS011;6381;45.748;12.106;2022-08-19T12:52:20;4.65;;;2.25;;
12631;SDS011;6381;45.748;12.106;2022-08-19T12:54:51;3.58;;;2.03;;
12631;SDS011;6381;45.748;12.106;2022-08-19T12:57:22;5.05;;;2.60;;
12631;SDS011;6381;45.748;12.106;2022-08-19T12:59:59;4.13;;;2.50;;
12631;SDS011;6381;45.748;12.106;2022-08-19T13:02:31;3.97;;;2.53;;
12631;SDS011;6381;45.748;12.106;2022-08-19T13:05:05;5.82;;;2.65;;
12631;SDS011;6381;45.748;12.106;2022-08-19T13:07:36;4.75;;;2.40;;
12631;SDS011;6381;45.748;12.106;2022-08-19T13:10:08;6.57;;;3.05;;
12631;SDS011;6381;45.748;12.106;2022-08-19T13:12:39;6.35;;;3.00;;
12631;SDS011;6381;45.748;12.106;2022-08-19T13:15:11;3.08;;;2.30;;
12631;SDS011;6381;45.748;12.106;2022-08-19T13:17:40;4.72;;;2.10;;
12631;SDS011;6381;45.748;12.106;2022-08-19T13:20:10;3.63;;;2.10;;
12631;SDS011;6381;45.748;12.106;2022-08-19T13:22:39;5.07;;;2.20;;
12631;SDS011;6381;45.748;12.106;2022-08-19T13:25:10;3.33;;;1.98;;
12631;SDS011;6381;45.748;12.106;2022-08-19T13:27:40;5.45;;;2.30;;
12631;SDS011;6381;45.748;12.106;2022-08-19T13:30:10;4.45;;;2.08;;
12631;SDS011;6381;45.748;12.106;2022-08-19T13:32:58;3.67;;;2.00;;
12631;SDS011;6381;45.748;12.106;2022-08-19T13:35:42;3.40;;;1.85;;
12631;SDS011;6381;45.748;12.106;2022-08-19T13:38:14;4.07;;;2.00;;
12631;SDS011;6381;45.748;12.106;2022-08-19T13:40:47;5.40;;;2.00;;
12631;SDS011;6381;45.748;12.106;2022-08-19T13:43:18;3.10;;;1.75;;
12631;SDS011;6381;45.748;12.106;2022-08-19T13:45:50;2.45;;;2.03;;
12631;SDS011;6381;45.748;12.106;2022-08-19T13:48:23;3.25;;;1.80;;
12631;SDS011;6381;45.748;12.106;2022-08-19T13:50:54;3.13;;;1.70;;
12631;SDS011;6381;45.748;12.106;2022-08-19T13:53:23;2.67;;;1.88;;
12631;SDS011;6381;45.748;12.106;2022-08-19T13:55:53;2.90;;;1.80;;
12631;SDS011;6381;45.748;12.106;2022-08-19T13:58:22;3.47;;;1.98;;
12631;SDS011;6381;45.748;12.106;2022-08-19T14:00:51;4.40;;;2.20;;
12631;SDS011;6381;45.748;12.106;2022-08-19T14:03:20;2.60;;;1.80;;
12631;SDS011;6381;45.748;12.106;2022-08-19T14:05:50;4.72;;;2.10;;
12631;SDS011;6381;45.748;12.106;2022-08-19T14:08:19;5.38;;;2.40;;
12631;SDS011;6381;45.748;12.106;2022-08-19T14:10:49;3.80;;;2.20;;
12631;SDS011;6381;45.748;12.106;2022-08-19T14:13:20;4.43;;;2.08;;
12631;SDS011;6381;45.748;12.106;2022-08-19T14:15:51;5.05;;;2.20;;
12631;SDS011;6381;45.748;12.106;2022-08-19T14:18:20;2.55;;;1.85;;
12631;SDS011;6381;45.748;12.106;2022-08-19T14:20:54;3.38;;;2.00;;
12631;SDS011;6381;45.748;12.106;2022-08-19T14:23:24;3.88;;;2.15;;
12631;SDS011;6381;45.748;12.106;2022-08-19T14:25:53;3.75;;;1.67;;
12631;SDS011;6381;45.748;12.106;2022-08-19T14:28:32;3.03;;;1.70;;
12631;SDS011;6381;45.748;12.106;2022-08-19T14:31:01;3.80;;;2.00;;
12631;SDS011;6381;45.748;12.106;2022-08-19T14:33:29;3.22;;;1.98;;
12631;SDS011;6381;45.748;12.106;2022-08-19T14:35:59;6.75;;;2.22;;
12631;SDS011;6381;45.748;12.106;2022-08-19T14:38:28;3.13;;;1.63;;
12631;SDS011;6381;45.748;12.106;2022-08-19T14:41:12;4.93;;;2.00;;
12631;SDS011;6381;45.748;12.106;2022-08-19T14:43:45;3.58;;;1.83;;
12631;SDS011;6381;45.748;12.106;2022-08-19T14:46:17;5.45;;;2.40;;
12631;SDS011;6381;45.748;12.106;2022-08-19T14:48:50;3.72;;;2.10;;
12631;SDS011;6381;45.748;12.106;2022-08-19T14:51:20;2.78;;;2.10;;
12631;SDS011;6381;45.748;12.106;2022-08-19T14:53:51;3.95;;;2.45;;
12631;SDS011;6381;45.748;12.106;2022-08-19T14:56:21;3.90;;;2.20;;
12631;SDS011;6381;45.748;12.106;2022-08-19T14:58:54;5.07;;;2.00;;
12631;SDS011;6381;45.748;12.106;2022-08-19T15:01:26;6.60;;;2.33;;
12631;SDS011;6381;45.748;12.106;2022-08-19T15:03:55;5.15;;;2.25;;
12631;SDS011;6381;45.748;12.106;2022-08-19T15:06:25;4.88;;;2.00;;
12631;SDS011;6381;45.748;12.106;2022-08-19T15:08:54;4.22;;;2.33;;
12631;SDS011;6381;45.748;12.106;2022-08-19T15:11:29;4.03;;;1.90;;
12631;SDS011;6381;45.748;12.106;2022-08-19T15:14:01;4.10;;;1.95;;
12631;SDS011;6381;45.748;12.106;2022-08-19T15:16:32;5.38;;;2.10;;
12631;SDS011;6381;45.748;12.106;2022-08-19T15:19:02;3.95;;;2.05;;